sensor_id;sensor_type;location;lat;lon;timestamp;temperature;humidity
37410;DHT22;23275;48.914;12.566;2023-07-13T00:00:30;19.20;99.90
37410;DHT22;23275;48.914;12.566;2023-07-13T00:02:57;19.30;99.90
37410;DHT22;23275;48.914;12.566;2023-07-13T00:05:23;19.20;99.90
37410;DHT22;23275;48.914;12.566;2023-07-13T00:07:50;19.20;99.90
37410;DHT22;23275;48.914;12.566;2023-07-13T00:10:16;19.20;99.90
37410;DHT22;23275;48.914;12.566;2023-07-13T00:12:42;19.20;99.90
37410;DHT22;23275;48.914;12.566;2023-07-13T00:15:15;19.20;99.90
37410;DHT22;23275;48.914;12.566;2023-07-13T00:17:42;19.10;99.90
37410;DHT22;23275;48.914;12.566;2023-07-13T00:20:10;19.10;99.90
37410;DHT22;23275;48.914;12.566;2023-07-13T00:22:36;19.10;99.90
37410;DHT22;23275;48.914;12.566;2023-07-13T00:25:01;19.00;99.90
37410;DHT22;23275;48.914;12.566;2023-07-13T00:27:27;19.00;99.90
37410;DHT22;23275;48.914;12.566;2023-07-13T00:29:55;19.00;99.90
37410;DHT22;23275;48.914;12.566;2023-07-13T00:32:20;19.00;99.90
37410;DHT22;23275;48.914;12.566;2023-07-13T00:34:46;19.00;99.90
37410;DHT22;23275;48.914;12.566;2023-07-13T00:37:12;19.00;99.90
37410;DHT22;23275;48.914;12.566;2023-07-13T00:39:38;19.00;99.90
37410;DHT22;23275;48.914;12.566;2023-07-13T00:42:05;19.00;99.90
37410;DHT22;23275;48.914;12.566;2023-07-13T00:44:30;19.00;99.90
37410;DHT22;23275;48.914;12.566;2023-07-13T00:46:56;19.00;99.90
37410;DHT22;23275;48.914;12.566;2023-07-13T00:49:25;19.00;99.90
37410;DHT22;23275;48.914;12.566;2023-07-13T00:51:58;19.00;99.90
37410;DHT22;23275;48.914;12.566;2023-07-13T00:54:28;19.00;99.90
37410;DHT22;23275;48.914;12.566;2023-07-13T00:57:11;19.00;99.90
37410;DHT22;23275;48.914;12.566;2023-07-13T00:59:40;18.90;99.90
37410;DHT22;23275;48.914;12.566;2023-07-13T01:02:07;18.90;99.90
37410;DHT22;23275;48.914;12.566;2023-07-13T01:04:33;18.90;99.90
37410;DHT22;23275;48.914;12.566;2023-07-13T01:06:58;18.90;99.90
37410;DHT22;23275;48.914;12.566;2023-07-13T01:09:26;18.90;99.90
37410;DHT22;23275;48.914;12.566;2023-07-13T01:11:52;18.90;99.90
37410;DHT22;23275;48.914;12.566;2023-07-13T01:14:17;18.90;99.90
37410;DHT22;23275;48.914;12.566;2023-07-13T01:16:45;18.90;99.90
37410;DHT22;23275;48.914;12.566;2023-07-13T01:21:50;18.90;99.90
37410;DHT22;23275;48.914;12.566;2023-07-13T01:24:15;18.90;99.90
37410;DHT22;23275;48.914;12.566;2023-07-13T01:26:41;18.90;99.90
37410;DHT22;23275;48.914;12.566;2023-07-13T01:29:06;18.90;99.90
37410;DHT22;23275;48.914;12.566;2023-07-13T01:31:33;18.90;99.90
37410;DHT22;23275;48.914;12.566;2023-07-13T01:33:58;18.90;99.90
37410;DHT22;23275;48.914;12.566;2023-07-13T01:36:24;19.00;99.90
37410;DHT22;23275;48.914;12.566;2023-07-13T01:38:50;19.00;99.90
37410;DHT22;23275;48.914;12.566;2023-07-13T01:41:15;19.00;99.90
37410;DHT22;23275;48.914;12.566;2023-07-13T01:43:41;19.00;99.90
37410;DHT22;23275;48.914;12.566;2023-07-13T01:46:06;19.00;99.90
37410;DHT22;23275;48.914;12.566;2023-07-13T01:48:32;19.00;99.90
37410;DHT22;23275;48.914;12.566;2023-07-13T01:50:58;19.00;99.90
37410;DHT22;23275;48.914;12.566;2023-07-13T01:53:23;19.00;99.90
37410;DHT22;23275;48.914;12.566;2023-07-13T01:55:49;19.10;99.90
37410;DHT22;23275;48.914;12.566;2023-07-13T01:58:14;19.10;99.90
37410;DHT22;23275;48.914;12.566;2023-07-13T02:00:40;19.10;99.90
37410;DHT22;23275;48.914;12.566;2023-07-13T02:03:05;19.10;99.90
37410;DHT22;23275;48.914;12.566;2023-07-13T02:05:31;19.10;99.90
37410;DHT22;23275;48.914;12.566;2023-07-13T02:07:56;19.10;99.90
37410;DHT22;23275;48.914;12.566;2023-07-13T02:10:23;19.10;99.90
37410;DHT22;23275;48.914;12.566;2023-07-13T02:12:48;19.10;99.90
37410;DHT22;23275;48.914;12.566;2023-07-13T02:15:15;19.10;99.90
37410;DHT22;23275;48.914;12.566;2023-07-13T02:17:41;19.10;99.90
37410;DHT22;23275;48.914;12.566;2023-07-13T02:20:06;19.10;99.90
37410;DHT22;23275;48.914;12.566;2023-07-13T02:22:33;19.10;99.90
37410;DHT22;23275;48.914;12.566;2023-07-13T02:24:59;19.10;99.90
37410;DHT22;23275;48.914;12.566;2023-07-13T02:27:25;19.10;99.90
37410;DHT22;23275;48.914;12.566;2023-07-13T02:29:50;19.10;99.90
37410;DHT22;23275;48.914;12.566;2023-07-13T02:32:17;19.10;99.90
37410;DHT22;23275;48.914;12.566;2023-07-13T02:34:42;19.10;99.90
37410;DHT22;23275;48.914;12.566;2023-07-13T02:37:08;19.10;99.90
37410;DHT22;23275;48.914;12.566;2023-07-13T02:39:34;19.10;99.90
37410;DHT22;23275;48.914;12.566;2023-07-13T02:41:59;19.10;99.90
37410;DHT22;23275;48.914;12.566;2023-07-13T02:44:26;19.10;99.90
37410;DHT22;23275;48.914;12.566;2023-07-13T02:46:51;19.10;99.90
37410;DHT22;23275;48.914;12.566;2023-07-13T02:49:17;19.10;99.90
37410;DHT22;23275;48.914;12.566;2023-07-13T02:51:42;19.10;99.90
37410;DHT22;23275;48.914;12.566;2023-07-13T02:54:09;19.00;99.90
37410;DHT22;23275;48.914;12.566;2023-07-13T02:56:35;19.10;99.90
37410;DHT22;23275;48.914;12.566;2023-07-13T02:59:01;19.10;99.90
37410;DHT22;23275;48.914;12.566;2023-07-13T03:01:26;19.00;99.90
37410;DHT22;23275;48.914;12.566;2023-07-13T03:03:52;19.00;99.90
37410;DHT22;23275;48.914;12.566;2023-07-13T03:06:19;18.90;99.90
37410;DHT22;23275;48.914;12.566;2023-07-13T03:08:45;18.90;99.90
37410;DHT22;23275;48.914;12.566;2023-07-13T03:11:14;18.90;99.90
37410;DHT22;23275;48.914;12.566;2023-07-13T03:13:40;18.90;99.90
37410;DHT22;23275;48.914;12.566;2023-07-13T03:16:07;18.80;99.90
37410;DHT22;23275;48.914;12.566;2023-07-13T03:18:34;18.80;99.90
37410;DHT22;23275;48.914;12.566;2023-07-13T03:21:00;18.80;99.90
37410;DHT22;23275;48.914;12.566;2023-07-13T03:23:26;18.80;99.90
37410;DHT22;23275;48.914;12.566;2023-07-13T03:26:01;18.90;99.90
37410;DHT22;23275;48.914;12.566;2023-07-13T03:28:27;18.90;99.90
37410;DHT22;23275;48.914;12.566;2023-07-13T03:31:06;18.90;99.90
37410;DHT22;23275;48.914;12.566;2023-07-13T03:33:32;18.90;99.90
37410;DHT22;23275;48.914;12.566;2023-07-13T03:35:58;18.80;99.90
37410;DHT22;23275;48.914;12.566;2023-07-13T03:38:24;18.90;99.90
37410;DHT22;23275;48.914;12.566;2023-07-13T03:40:50;18.90;99.90
37410;DHT22;23275;48.914;12.566;2023-07-13T03:43:15;18.90;99.90
37410;DHT22;23275;48.914;12.566;2023-07-13T03:45:41;18.80;99.90
37410;DHT22;23275;48.914;12.566;2023-07-13T03:48:06;18.90;99.90
37410;DHT22;23275;48.914;12.566;2023-07-13T03:50:32;18.80;99.90
37410;DHT22;23275;48.914;12.566;2023-07-13T03:52:58;18.90;99.90
37410;DHT22;23275;48.914;12.566;2023-07-13T03:55:24;18.90;99.90
37410;DHT22;23275;48.914;12.566;2023-07-13T03:57:57;18.90;99.90
37410;DHT22;23275;48.914;12.566;2023-07-13T04:00:23;18.90;99.90
37410;DHT22;23275;48.914;12.566;2023-07-13T04:02:49;18.80;99.90
37410;DHT22;23275;48.914;12.566;2023-07-13T04:05:15;18.80;99.90
37410;DHT22;23275;48.914;12.566;2023-07-13T04:07:41;18.80;99.90
37410;DHT22;23275;48.914;12.566;2023-07-13T04:10:07;18.80;99.90
37410;DHT22;23275;48.914;12.566;2023-07-13T04:12:32;18.80;99.90
37410;DHT22;23275;48.914;12.566;2023-07-13T04:14:58;18.70;99.90
37410;DHT22;23275;48.914;12.566;2023-07-13T04:17:23;18.70;99.90
37410;DHT22;23275;48.914;12.566;2023-07-13T04:19:49;18.70;99.90
37410;DHT22;23275;48.914;12.566;2023-07-13T04:22:15;18.70;99.90
37410;DHT22;23275;48.914;12.566;2023-07-13T04:24:40;18.70;99.90
37410;DHT22;23275;48.914;12.566;2023-07-13T04:27:06;18.80;99.90
37410;DHT22;23275;48.914;12.566;2023-07-13T04:29:32;18.70;99.90
37410;DHT22;23275;48.914;12.566;2023-07-13T04:31:57;18.80;99.90
37410;DHT22;23275;48.914;12.566;2023-07-13T04:34:23;18.80;99.90
37410;DHT22;23275;48.914;12.566;2023-07-13T04:36:49;18.90;99.90
37410;DHT22;23275;48.914;12.566;2023-07-13T04:39:15;19.00;99.90
37410;DHT22;23275;48.914;12.566;2023-07-13T04:41:41;19.00;99.90
37410;DHT22;23275;48.914;12.566;2023-07-13T04:44:07;19.00;99.90
37410;DHT22;23275;48.914;12.566;2023-07-13T04:46:32;19.10;99.90
37410;DHT22;23275;48.914;12.566;2023-07-13T04:48:58;19.10;99.90
37410;DHT22;23275;48.914;12.566;2023-07-13T04:51:24;19.20;99.90
37410;DHT22;23275;48.914;12.566;2023-07-13T04:53:50;19.20;99.90
37410;DHT22;23275;48.914;12.566;2023-07-13T04:56:15;19.20;99.90
37410;DHT22;23275;48.914;12.566;2023-07-13T04:58:41;19.30;99.90
37410;DHT22;23275;48.914;12.566;2023-07-13T05:01:07;19.40;99.90
37410;DHT22;23275;48.914;12.566;2023-07-13T05:03:34;19.40;99.90
37410;DHT22;23275;48.914;12.566;2023-07-13T05:06:07;19.50;99.90
37410;DHT22;23275;48.914;12.566;2023-07-13T05:08:35;19.50;99.90
37410;DHT22;23275;48.914;12.566;2023-07-13T05:11:03;19.60;99.90
37410;DHT22;23275;48.914;12.566;2023-07-13T05:13:29;19.60;99.90
37410;DHT22;23275;48.914;12.566;2023-07-13T05:15:59;19.70;99.90
37410;DHT22;23275;48.914;12.566;2023-07-13T05:18:25;19.70;99.90
37410;DHT22;23275;48.914;12.566;2023-07-13T05:21:17;19.70;99.90
37410;DHT22;23275;48.914;12.566;2023-07-13T05:23:42;19.70;99.90
37410;DHT22;23275;48.914;12.566;2023-07-13T05:26:08;19.70;99.90
37410;DHT22;23275;48.914;12.566;2023-07-13T05:28:34;19.60;99.90
37410;DHT22;23275;48.914;12.566;2023-07-13T05:30:59;19.60;99.90
37410;DHT22;23275;48.914;12.566;2023-07-13T05:33:26;19.60;99.90
37410;DHT22;23275;48.914;12.566;2023-07-13T05:35:52;19.60;99.90
37410;DHT22;23275;48.914;12.566;2023-07-13T05:38:17;19.70;99.90
37410;DHT22;23275;48.914;12.566;2023-07-13T05:40:46;19.60;99.90
37410;DHT22;23275;48.914;12.566;2023-07-13T05:43:12;19.60;99.90
37410;DHT22;23275;48.914;12.566;2023-07-13T05:45:38;19.60;99.90
37410;DHT22;23275;48.914;12.566;2023-07-13T05:48:04;19.60;99.90
37410;DHT22;23275;48.914;12.566;2023-07-13T05:50:30;19.70;99.90
37410;DHT22;23275;48.914;12.566;2023-07-13T05:52:55;19.90;99.90
37410;DHT22;23275;48.914;12.566;2023-07-13T05:55:22;20.10;99.90
37410;DHT22;23275;48.914;12.566;2023-07-13T05:57:47;20.20;99.90
37410;DHT22;23275;48.914;12.566;2023-07-13T06:00:13;20.30;99.90
37410;DHT22;23275;48.914;12.566;2023-07-13T06:02:39;20.50;99.90
37410;DHT22;23275;48.914;12.566;2023-07-13T06:05:05;20.60;99.90
37410;DHT22;23275;48.914;12.566;2023-07-13T06:07:30;20.70;99.90
37410;DHT22;23275;48.914;12.566;2023-07-13T06:09:56;20.70;99.90
37410;DHT22;23275;48.914;12.566;2023-07-13T06:12:22;20.60;99.90
37410;DHT22;23275;48.914;12.566;2023-07-13T06:14:47;20.50;99.90
37410;DHT22;23275;48.914;12.566;2023-07-13T06:17:13;20.40;99.90
37410;DHT22;23275;48.914;12.566;2023-07-13T06:19:38;20.50;99.90
37410;DHT22;23275;48.914;12.566;2023-07-13T06:22:04;20.70;99.90
37410;DHT22;23275;48.914;12.566;2023-07-13T06:24:30;20.90;99.90
37410;DHT22;23275;48.914;12.566;2023-07-13T06:26:55;21.20;99.90
37410;DHT22;23275;48.914;12.566;2023-07-13T06:29:21;21.30;99.90
37410;DHT22;23275;48.914;12.566;2023-07-13T06:31:47;21.40;99.90
37410;DHT22;23275;48.914;12.566;2023-07-13T06:34:13;21.40;99.90
37410;DHT22;23275;48.914;12.566;2023-07-13T06:36:38;21.40;99.90
37410;DHT22;23275;48.914;12.566;2023-07-13T06:39:06;21.50;99.90
37410;DHT22;23275;48.914;12.566;2023-07-13T06:41:31;21.60;99.90
37410;DHT22;23275;48.914;12.566;2023-07-13T06:43:58;21.60;99.90
37410;DHT22;23275;48.914;12.566;2023-07-13T06:46:24;21.60;99.90
37410;DHT22;23275;48.914;12.566;2023-07-13T06:48:50;21.50;99.90
37410;DHT22;23275;48.914;12.566;2023-07-13T06:51:16;21.40;99.90
37410;DHT22;23275;48.914;12.566;2023-07-13T06:53:42;21.40;99.90
37410;DHT22;23275;48.914;12.566;2023-07-13T06:56:09;21.40;99.90
37410;DHT22;23275;48.914;12.566;2023-07-13T06:58:36;21.70;99.90
37410;DHT22;23275;48.914;12.566;2023-07-13T07:01:02;21.80;99.90
37410;DHT22;23275;48.914;12.566;2023-07-13T07:03:28;21.80;99.90
37410;DHT22;23275;48.914;12.566;2023-07-13T07:05:54;21.60;99.90
37410;DHT22;23275;48.914;12.566;2023-07-13T07:08:24;21.70;99.90
37410;DHT22;23275;48.914;12.566;2023-07-13T07:10:50;22.00;99.90
37410;DHT22;23275;48.914;12.566;2023-07-13T07:13:19;22.40;99.90
37410;DHT22;23275;48.914;12.566;2023-07-13T07:15:45;22.70;99.90
37410;DHT22;23275;48.914;12.566;2023-07-13T07:18:10;23.00;99.90
37410;DHT22;23275;48.914;12.566;2023-07-13T07:20:36;23.20;99.90
37410;DHT22;23275;48.914;12.566;2023-07-13T07:23:01;23.30;99.90
37410;DHT22;23275;48.914;12.566;2023-07-13T07:25:27;23.70;99.90
37410;DHT22;23275;48.914;12.566;2023-07-13T07:27:58;23.90;99.90
37410;DHT22;23275;48.914;12.566;2023-07-13T07:30:28;24.10;99.90
37410;DHT22;23275;48.914;12.566;2023-07-13T07:33:08;24.50;99.90
37410;DHT22;23275;48.914;12.566;2023-07-13T07:35:34;25.00;99.90
37410;DHT22;23275;48.914;12.566;2023-07-13T07:37:59;25.30;99.90
37410;DHT22;23275;48.914;12.566;2023-07-13T07:40:26;25.50;99.90
37410;DHT22;23275;48.914;12.566;2023-07-13T07:42:52;25.40;99.90
37410;DHT22;23275;48.914;12.566;2023-07-13T07:45:18;25.40;99.90
37410;DHT22;23275;48.914;12.566;2023-07-13T07:47:44;25.50;99.90
37410;DHT22;23275;48.914;12.566;2023-07-13T07:50:10;25.50;99.90
37410;DHT22;23275;48.914;12.566;2023-07-13T07:52:36;25.30;99.90
37410;DHT22;23275;48.914;12.566;2023-07-13T07:55:01;25.10;99.90
37410;DHT22;23275;48.914;12.566;2023-07-13T07:57:27;24.90;99.90
37410;DHT22;23275;48.914;12.566;2023-07-13T07:59:52;25.10;99.90
37410;DHT22;23275;48.914;12.566;2023-07-13T08:02:18;25.40;99.90
37410;DHT22;23275;48.914;12.566;2023-07-13T08:04:43;25.70;99.90
37410;DHT22;23275;48.914;12.566;2023-07-13T08:07:09;25.90;99.90
37410;DHT22;23275;48.914;12.566;2023-07-13T08:09:35;25.90;99.90
37410;DHT22;23275;48.914;12.566;2023-07-13T08:12:00;26.00;99.90
37410;DHT22;23275;48.914;12.566;2023-07-13T08:14:26;26.30;99.90
37410;DHT22;23275;48.914;12.566;2023-07-13T08:16:52;26.90;99.90
37410;DHT22;23275;48.914;12.566;2023-07-13T08:19:17;26.90;99.90
37410;DHT22;23275;48.914;12.566;2023-07-13T08:21:43;26.60;99.90
37410;DHT22;23275;48.914;12.566;2023-07-13T08:24:09;26.40;99.90
37410;DHT22;23275;48.914;12.566;2023-07-13T08:26:34;26.40;99.90
37410;DHT22;23275;48.914;12.566;2023-07-13T08:29:00;26.50;99.90
37410;DHT22;23275;48.914;12.566;2023-07-13T08:31:26;27.00;99.90
37410;DHT22;23275;48.914;12.566;2023-07-13T08:33:52;27.10;99.90
37410;DHT22;23275;48.914;12.566;2023-07-13T08:36:17;26.90;99.90
37410;DHT22;23275;48.914;12.566;2023-07-13T08:38:43;27.00;99.90
37410;DHT22;23275;48.914;12.566;2023-07-13T08:41:17;26.90;99.90
37410;DHT22;23275;48.914;12.566;2023-07-13T08:43:47;26.80;99.90
37410;DHT22;23275;48.914;12.566;2023-07-13T08:46:33;27.10;99.90
37410;DHT22;23275;48.914;12.566;2023-07-13T08:49:04;27.50;99.90
37410;DHT22;23275;48.914;12.566;2023-07-13T08:51:41;27.70;99.90
37410;DHT22;23275;48.914;12.566;2023-07-13T08:54:20;28.00;99.90
37410;DHT22;23275;48.914;12.566;2023-07-13T08:56:49;28.00;99.90
37410;DHT22;23275;48.914;12.566;2023-07-13T08:59:19;27.80;99.50
37410;DHT22;23275;48.914;12.566;2023-07-13T09:04:28;27.70;99.40
37410;DHT22;23275;48.914;12.566;2023-07-13T09:07:01;27.60;99.90
37410;DHT22;23275;48.914;12.566;2023-07-13T09:09:44;27.70;99.70
37410;DHT22;23275;48.914;12.566;2023-07-13T09:12:19;27.80;98.40
37410;DHT22;23275;48.914;12.566;2023-07-13T09:14:51;28.00;98.20
37410;DHT22;23275;48.914;12.566;2023-07-13T09:17:23;28.10;97.20
37410;DHT22;23275;48.914;12.566;2023-07-13T09:20:02;28.20;96.50
37410;DHT22;23275;48.914;12.566;2023-07-13T09:22:32;28.40;96.10
37410;DHT22;23275;48.914;12.566;2023-07-13T09:27:39;28.40;94.00
37410;DHT22;23275;48.914;12.566;2023-07-13T09:30:23;28.10;95.50
37410;DHT22;23275;48.914;12.566;2023-07-13T09:32:52;27.70;97.20
37410;DHT22;23275;48.914;12.566;2023-07-13T09:35:26;27.60;95.90
37410;DHT22;23275;48.914;12.566;2023-07-13T09:37:57;27.60;95.90
37410;DHT22;23275;48.914;12.566;2023-07-13T09:43:17;28.50;95.70
37410;DHT22;23275;48.914;12.566;2023-07-13T09:45:46;29.10;95.30
37410;DHT22;23275;48.914;12.566;2023-07-13T09:48:14;29.70;93.80
37410;DHT22;23275;48.914;12.566;2023-07-13T09:50:42;30.30;93.50
37410;DHT22;23275;48.914;12.566;2023-07-13T09:53:12;30.70;92.60
37410;DHT22;23275;48.914;12.566;2023-07-13T09:55:39;30.90;91.90
37410;DHT22;23275;48.914;12.566;2023-07-13T09:58:30;31.30;91.20
37410;DHT22;23275;48.914;12.566;2023-07-13T10:01:01;31.30;81.60
37410;DHT22;23275;48.914;12.566;2023-07-13T10:03:32;30.80;87.70
37410;DHT22;23275;48.914;12.566;2023-07-13T10:06:14;30.70;84.90
37410;DHT22;23275;48.914;12.566;2023-07-13T10:08:40;31.00;84.10
37410;DHT22;23275;48.914;12.566;2023-07-13T10:11:28;31.40;83.50
37410;DHT22;23275;48.914;12.566;2023-07-13T10:14:01;32.10;80.70
37410;DHT22;23275;48.914;12.566;2023-07-13T10:16:33;32.10;71.30
37410;DHT22;23275;48.914;12.566;2023-07-13T10:19:05;32.10;70.00
37410;DHT22;23275;48.914;12.566;2023-07-13T10:21:39;32.30;68.60
37410;DHT22;23275;48.914;12.566;2023-07-13T10:24:20;32.60;68.80
37410;DHT22;23275;48.914;12.566;2023-07-13T10:27:20;33.00;65.50
37410;DHT22;23275;48.914;12.566;2023-07-13T10:32:35;33.60;62.50
37410;DHT22;23275;48.914;12.566;2023-07-13T10:35:01;34.20;62.40
37410;DHT22;23275;48.914;12.566;2023-07-13T10:40:26;34.60;58.50
37410;DHT22;23275;48.914;12.566;2023-07-13T10:42:56;33.70;62.70
37410;DHT22;23275;48.914;12.566;2023-07-13T10:45:25;34.20;60.50
37410;DHT22;23275;48.914;12.566;2023-07-13T10:47:53;34.70;61.20
37410;DHT22;23275;48.914;12.566;2023-07-13T10:50:26;35.20;59.30
37410;DHT22;23275;48.914;12.566;2023-07-13T10:52:54;34.30;56.70
37410;DHT22;23275;48.914;12.566;2023-07-13T10:55:34;33.80;58.20
37410;DHT22;23275;48.914;12.566;2023-07-13T10:58:03;33.50;57.50
37410;DHT22;23275;48.914;12.566;2023-07-13T11:00:46;33.50;57.00
37410;DHT22;23275;48.914;12.566;2023-07-13T11:03:15;33.50;58.70
37410;DHT22;23275;48.914;12.566;2023-07-13T11:05:41;33.00;59.00
37410;DHT22;23275;48.914;12.566;2023-07-13T11:08:31;32.20;59.40
37410;DHT22;23275;48.914;12.566;2023-07-13T11:10:58;31.50;62.60
37410;DHT22;23275;48.914;12.566;2023-07-13T11:21:20;33.20;60.00
37410;DHT22;23275;48.914;12.566;2023-07-13T11:29:38;30.80;58.70
37410;DHT22;23275;48.914;12.566;2023-07-13T11:32:30;30.50;62.00
37410;DHT22;23275;48.914;12.566;2023-07-13T11:34:57;30.50;61.80
37410;DHT22;23275;48.914;12.566;2023-07-13T11:37:23;30.20;60.30
37410;DHT22;23275;48.914;12.566;2023-07-13T11:39:51;30.00;61.50
37410;DHT22;23275;48.914;12.566;2023-07-13T11:42:18;29.60;60.90
37410;DHT22;23275;48.914;12.566;2023-07-13T11:44:48;29.10;63.80
37410;DHT22;23275;48.914;12.566;2023-07-13T11:47:18;29.20;66.50
37410;DHT22;23275;48.914;12.566;2023-07-13T11:49:55;29.20;65.60
37410;DHT22;23275;48.914;12.566;2023-07-13T11:52:36;29.20;64.40
37410;DHT22;23275;48.914;12.566;2023-07-13T11:55:08;29.20;64.40
37410;DHT22;23275;48.914;12.566;2023-07-13T11:57:44;29.10;65.40
37410;DHT22;23275;48.914;12.566;2023-07-13T12:00:13;29.10;64.90
37410;DHT22;23275;48.914;12.566;2023-07-13T12:02:46;29.00;65.30
37410;DHT22;23275;48.914;12.566;2023-07-13T12:05:14;29.00;68.20
37410;DHT22;23275;48.914;12.566;2023-07-13T12:07:40;29.10;67.40
37410;DHT22;23275;48.914;12.566;2023-07-13T12:15:20;28.80;67.70
37410;DHT22;23275;48.914;12.566;2023-07-13T12:17:48;28.60;64.90
37410;DHT22;23275;48.914;12.566;2023-07-13T12:20:22;28.00;64.00
37410;DHT22;23275;48.914;12.566;2023-07-13T12:22:50;27.70;65.90
37410;DHT22;23275;48.914;12.566;2023-07-13T12:25:17;27.70;66.50
37410;DHT22;23275;48.914;12.566;2023-07-13T12:27:47;27.80;66.50
37410;DHT22;23275;48.914;12.566;2023-07-13T12:30:30;27.80;66.00
37410;DHT22;23275;48.914;12.566;2023-07-13T12:33:05;27.80;67.60
37410;DHT22;23275;48.914;12.566;2023-07-13T12:35:51;27.80;64.90
37410;DHT22;23275;48.914;12.566;2023-07-13T12:38:18;27.60;66.00
37410;DHT22;23275;48.914;12.566;2023-07-13T12:40:49;27.70;64.40
37410;DHT22;23275;48.914;12.566;2023-07-13T12:43:16;27.40;65.00
37410;DHT22;23275;48.914;12.566;2023-07-13T12:45:59;27.40;65.30
37410;DHT22;23275;48.914;12.566;2023-07-13T12:48:27;27.50;64.90
37410;DHT22;23275;48.914;12.566;2023-07-13T12:50:54;27.40;64.70
37410;DHT22;23275;48.914;12.566;2023-07-13T12:53:24;27.50;66.40
37410;DHT22;23275;48.914;12.566;2023-07-13T12:55:55;27.50;64.20
37410;DHT22;23275;48.914;12.566;2023-07-13T12:58:30;27.70;64.40
37410;DHT22;23275;48.914;12.566;2023-07-13T13:00:59;27.50;62.50
37410;DHT22;23275;48.914;12.566;2023-07-13T13:06:05;27.50;64.20
37410;DHT22;23275;48.914;12.566;2023-07-13T13:08:35;27.50;65.50
37410;DHT22;23275;48.914;12.566;2023-07-13T13:11:01;27.50;65.20
37410;DHT22;23275;48.914;12.566;2023-07-13T13:13:26;27.50;65.60
37410;DHT22;23275;48.914;12.566;2023-07-13T13:15:52;27.50;62.00
37410;DHT22;23275;48.914;12.566;2023-07-13T13:18:21;27.30;64.00
37410;DHT22;23275;48.914;12.566;2023-07-13T13:20:47;27.30;63.20
37410;DHT22;23275;48.914;12.566;2023-07-13T13:23:17;27.30;65.00
37410;DHT22;23275;48.914;12.566;2023-07-13T13:25:50;27.30;66.70
37410;DHT22;23275;48.914;12.566;2023-07-13T13:28:20;27.30;65.80
37410;DHT22;23275;48.914;12.566;2023-07-13T13:30:48;27.30;66.50
37410;DHT22;23275;48.914;12.566;2023-07-13T13:33:16;27.30;66.30
37410;DHT22;23275;48.914;12.566;2023-07-13T13:35:43;27.40;63.70
37410;DHT22;23275;48.914;12.566;2023-07-13T13:38:17;27.30;63.20
37410;DHT22;23275;48.914;12.566;2023-07-13T13:40:45;27.30;61.60
37410;DHT22;23275;48.914;12.566;2023-07-13T13:45:44;27.10;60.70
37410;DHT22;23275;48.914;12.566;2023-07-13T13:48:22;27.10;63.30
37410;DHT22;23275;48.914;12.566;2023-07-13T13:50:56;27.00;62.10
37410;DHT22;23275;48.914;12.566;2023-07-13T13:53:21;26.90;62.50
37410;DHT22;23275;48.914;12.566;2023-07-13T13:55:49;26.90;62.40
37410;DHT22;23275;48.914;12.566;2023-07-13T13:58:15;26.70;61.90
37410;DHT22;23275;48.914;12.566;2023-07-13T14:00:40;26.60;62.90
37410;DHT22;23275;48.914;12.566;2023-07-13T14:03:14;26.60;62.10
37410;DHT22;23275;48.914;12.566;2023-07-13T14:05:40;26.40;62.80
37410;DHT22;23275;48.914;12.566;2023-07-13T14:08:14;26.30;62.50
37410;DHT22;23275;48.914;12.566;2023-07-13T14:10:40;26.40;63.10
37410;DHT22;23275;48.914;12.566;2023-07-13T14:13:19;26.40;63.50
37410;DHT22;23275;48.914;12.566;2023-07-13T14:15:46;26.20;62.00
37410;DHT22;23275;48.914;12.566;2023-07-13T14:18:13;26.20;63.10
37410;DHT22;23275;48.914;12.566;2023-07-13T14:20:44;26.20;60.30
37410;DHT22;23275;48.914;12.566;2023-07-13T14:23:10;26.00;61.90
37410;DHT22;23275;48.914;12.566;2023-07-13T14:25:36;26.00;62.30
37410;DHT22;23275;48.914;12.566;2023-07-13T14:28:22;26.10;62.40
37410;DHT22;23275;48.914;12.566;2023-07-13T14:30:49;26.30;62.40
37410;DHT22;23275;48.914;12.566;2023-07-13T14:33:15;26.40;62.20
37410;DHT22;23275;48.914;12.566;2023-07-13T14:35:41;26.40;61.90
37410;DHT22;23275;48.914;12.566;2023-07-13T14:38:11;26.40;63.40
37410;DHT22;23275;48.914;12.566;2023-07-13T14:40:38;26.30;63.70
37410;DHT22;23275;48.914;12.566;2023-07-13T14:43:04;26.20;63.00
37410;DHT22;23275;48.914;12.566;2023-07-13T14:45:30;26.10;63.70
37410;DHT22;23275;48.914;12.566;2023-07-13T14:47:56;26.10;63.80
37410;DHT22;23275;48.914;12.566;2023-07-13T14:50:30;26.10;64.10
37410;DHT22;23275;48.914;12.566;2023-07-13T14:52:57;26.20;62.30
37410;DHT22;23275;48.914;12.566;2023-07-13T14:55:22;26.30;61.80
37410;DHT22;23275;48.914;12.566;2023-07-13T14:57:51;26.30;62.70
37410;DHT22;23275;48.914;12.566;2023-07-13T15:00:21;26.30;63.90
37410;DHT22;23275;48.914;12.566;2023-07-13T15:02:51;26.30;61.80
37410;DHT22;23275;48.914;12.566;2023-07-13T15:05:22;26.20;60.90
37410;DHT22;23275;48.914;12.566;2023-07-13T15:07:50;26.10;60.70
37410;DHT22;23275;48.914;12.566;2023-07-13T15:10:19;26.10;62.20
37410;DHT22;23275;48.914;12.566;2023-07-13T15:12:46;26.20;60.30
37410;DHT22;23275;48.914;12.566;2023-07-13T15:15:12;26.20;60.80
37410;DHT22;23275;48.914;12.566;2023-07-13T15:17:41;26.30;61.90
37410;DHT22;23275;48.914;12.566;2023-07-13T15:20:28;26.20;61.90
37410;DHT22;23275;48.914;12.566;2023-07-13T15:22:54;26.10;60.70
37410;DHT22;23275;48.914;12.566;2023-07-13T15:25:23;26.00;60.60
37410;DHT22;23275;48.914;12.566;2023-07-13T15:27:50;26.00;61.60
37410;DHT22;23275;48.914;12.566;2023-07-13T15:30:15;25.90;61.90
37410;DHT22;23275;48.914;12.566;2023-07-13T15:32:42;25.80;60.90
37410;DHT22;23275;48.914;12.566;2023-07-13T15:35:24;25.70;61.50
37410;DHT22;23275;48.914;12.566;2023-07-13T15:37:50;25.80;62.00
37410;DHT22;23275;48.914;12.566;2023-07-13T15:40:16;25.80;63.00
37410;DHT22;23275;48.914;12.566;2023-07-13T15:42:43;25.80;61.70
37410;DHT22;23275;48.914;12.566;2023-07-13T15:45:18;25.50;62.00
37410;DHT22;23275;48.914;12.566;2023-07-13T15:47:44;25.40;62.80
37410;DHT22;23275;48.914;12.566;2023-07-13T15:50:16;25.30;63.70
37410;DHT22;23275;48.914;12.566;2023-07-13T15:52:44;25.30;62.60
37410;DHT22;23275;48.914;12.566;2023-07-13T15:55:11;25.40;62.50
37410;DHT22;23275;48.914;12.566;2023-07-13T15:57:38;25.50;61.40
37410;DHT22;23275;48.914;12.566;2023-07-13T16:00:14;25.50;61.60
37410;DHT22;23275;48.914;12.566;2023-07-13T16:02:42;25.50;60.90